Time;durP1;ratioP1;P1;durP2;ratioP2;P2;SDS_P1;SDS_P2;PMS_P1;PMS_P2;Temp;Humidity;BMP_temperature;BMP_pressure;BME280_temperature;BME280_humidity;BME280_pressure;Samples;Min_cycle;Max_cycle;Signal;HPM_P1;HPM_P2
2023/05/23 00:01:36;;;;;;;;;23.00;23.00;;;;;15.65;100.00;99323.03;6311995;20;2841003;-62
2023/05/23 00:04:05;;;;;;;;;24.00;23.00;;;;;15.45;100.00;99320.19;6310506;20;3587804;-63
2023/05/23 00:06:35;;;;;;;;;27.33;27.33;;;;;15.50;100.00;99317.09;6280257;20;3583656;-63
2023/05/23 00:09:03;;;;;;;;;30.00;26.67;;;;;15.56;100.00;99320.13;6281055;20;3605644;-62
2023/05/23 00:11:31;;;;;;;;;27.67;26.33;;;;;15.50;100.00;99323.38;6282696;20;3593361;-63
2023/05/23 00:14:01;;;;;;;;;27.67;27.00;;;;;15.55;100.00;99320.25;6280062;20;3596172;-62
2023/05/23 00:16:29;;;;;;;;;27.33;23.67;;;;;15.37;100.00;99322.72;6282372;20;3595063;-62
2023/05/23 00:18:58;;;;;;;;;22.67;22.67;;;;;14.98;100.00;99318.91;6281811;20;3595122;-62
2023/05/23 00:21:28;;;;;;;;;26.00;22.33;;;;;14.94;100.00;99315.63;6283397;20;3589803;-63
2023/05/23 00:23:58;;;;;;;;;25.00;25.00;;;;;15.00;100.00;99325.06;6278892;20;3587912;-63
2023/05/23 00:26:29;;;;;;;;;28.33;26.67;;;;;14.67;100.00;99321.56;6311080;20;3608607;-63
2023/05/23 00:28:58;;;;;;;;;24.00;22.67;;;;;14.80;100.00;99321.38;6280391;20;3590987;-62
2023/05/23 00:31:26;;;;;;;;;21.33;21.33;;;;;14.79;100.00;99322.34;6282221;20;3576420;-63
2023/05/23 00:33:55;;;;;;;;;30.00;24.33;;;;;14.99;100.00;99318.81;6277595;20;3614802;-62
2023/05/23 00:36:24;;;;;;;;;22.00;22.00;;;;;14.95;100.00;99324.59;6311657;20;3577411;-62
2023/05/23 00:38:52;;;;;;;;;23.00;21.00;;;;;14.92;100.00;99317.59;6277701;20;2492018;-63
2023/05/23 00:41:20;;;;;;;;;22.00;22.00;;;;;14.56;100.00;99322.47;6282888;20;3590876;-61
2023/05/23 00:43:48;;;;;;;;;22.00;22.00;;;;;14.50;100.00;99328.31;6285170;20;3594033;-63
2023/05/23 00:46:16;;;;;;;;;24.00;22.00;;;;;14.57;100.00;99326.88;6279386;20;2842987;-61
2023/05/23 00:48:45;;;;;;;;;22.50;22.50;;;;;14.37;100.00;99328.47;6279222;20;2835771;-62
2023/05/23 00:51:13;;;;;;;;;23.50;22.50;;;;;14.38;100.00;99329.38;6277725;20;2852497;-61
2023/05/23 00:53:42;;;;;;;;;24.00;22.67;;;;;14.55;100.00;99328.81;6280535;20;3576455;-61
2023/05/23 00:56:12;;;;;;;;;24.33;22.33;;;;;14.71;100.00;99326.53;6273236;20;2850523;-62
2023/05/23 00:58:40;;;;;;;;;25.33;24.00;;;;;14.96;100.00;99324.47;6309100;20;3581650;-62
2023/05/23 01:01:09;;;;;;;;;21.00;19.00;;;;;15.05;100.00;99326.38;6276087;20;2838817;-62
2023/05/23 01:03:38;;;;;;;;;23.00;22.33;;;;;14.93;100.00;99330.16;6283510;20;2844125;-63
2023/05/23 01:06:06;;;;;;;;;24.67;23.00;;;;;15.03;100.00;99322.09;6312914;20;3575345;-63
2023/05/23 01:08:35;;;;;;;;;22.67;21.67;;;;;15.05;100.00;99323.66;6293367;20;3578437;-62
2023/05/23 01:11:34;;;;;;;;;26.00;25.00;;;;;14.90;100.00;99325.88;6311864;20;2834724;-62
2023/05/23 01:14:14;;;;;;;;;24.00;21.33;;;;;14.85;100.00;99316.41;6280618;20;2841526;-63
2023/05/23 01:16:58;;;;;;;;;7.00;5.00;;;;;14.73;100.00;99312.91;6314492;20;2748188;-62
2023/05/23 01:19:50;;;;;;;;;26.67;24.00;;;;;14.64;100.00;99314.56;6283430;20;2848271;-62
2023/05/23 01:22:50;;;;;;;;;23.00;22.00;;;;;14.33;100.00;99304.59;6313833;20;3577434;-62
2023/05/23 01:26:02;;;;;;;;;28.00;23.00;;;;;14.33;100.00;99315.38;6280623;20;2862885;-62
2023/05/23 01:28:36;;;;;;;;;24.33;23.00;;;;;14.18;100.00;99318.34;6318621;20;3600265;-63
2023/05/23 01:31:09;;;;;;;;;21.00;21.00;;;;;14.40;100.00;99320.16;6285123;20;2843216;-62
2023/05/23 01:33:40;;;;;;;;;30.67;26.00;;;;;14.19;100.00;99316.50;6316253;20;3606651;-62
2023/05/23 01:36:09;;;;;;;;;20.00;20.00;;;;;14.37;100.00;99317.69;6283894;20;2838230;-63
2023/05/23 01:38:37;;;;;;;;;23.50;22.50;;;;;14.00;100.00;99309.91;6279949;20;2845095;-61
2023/05/23 01:41:06;;;;;;;;;25.33;24.00;;;;;14.07;100.00;99310.28;6282606;20;3600364;-61
2023/05/23 01:43:35;;;;;;;;;25.00;25.00;;;;;13.94;100.00;99310.44;6315286;20;3586849;-62
2023/05/23 01:46:05;;;;;;;;;25.33;24.00;;;;;13.90;100.00;99310.78;6280798;20;3595493;-63
2023/05/23 01:48:34;;;;;;;;;24.67;24.67;;;;;13.84;100.00;99310.31;6280552;20;3591979;-63
2023/05/23 01:51:04;;;;;;;;;26.67;26.00;;;;;13.89;100.00;99311.78;6279820;20;3604458;-63
2023/05/23 01:53:34;;;;;;;;;25.67;24.33;;;;;13.67;100.00;99310.84;6315178;20;3596746;-62
2023/05/23 01:56:04;;;;;;;;;24.33;23.33;;;;;13.84;100.00;99307.59;6277859;20;2854627;-62
2023/05/23 01:58:32;;;;;;;;;25.33;24.67;;;;;13.87;100.00;99300.25;6314612;20;3595136;-62
2023/05/23 02:01:01;;;;;;;;;23.00;21.33;;;;;14.06;100.00;99303.19;6282089;20;2846377;-62
2023/05/23 02:03:29;;;;;;;;;22.67;22.00;;;;;14.08;100.00;99300.34;6313667;20;3580537;-63
2023/05/23 02:05:58;;;;;;;;;24.50;22.00;;;;;14.23;100.00;99297.22;6277746;20;2848179;-63
2023/05/23 02:08:26;;;;;;;;;26.00;25.00;;;;;14.07;100.00;99299.50;6286910;20;3578439;-62
2023/05/23 02:10:55;;;;;;;;;22.67;22.67;;;;;14.22;100.00;99303.63;6282125;20;2850339;-62
2023/05/23 02:13:23;;;;;;;;;23.00;23.00;;;;;14.13;100.00;99303.53;6313524;20;2852387;-62
2023/05/23 02:15:52;;;;;;;;;23.00;20.50;;;;;14.01;100.00;99306.25;6276696;20;2845124;-62
2023/05/23 02:18:20;;;;;;;;;25.50;24.00;;;;;13.86;100.00;99298.56;6283126;20;2843030;-62
2023/05/23 02:20:48;;;;;;;;;27.33;23.33;;;;;13.75;100.00;99302.13;6283665;20;3600254;-62
2023/05/23 02:23:16;;;;;;;;;25.00;20.00;;;;;13.67;100.00;99302.75;6283893;20;2846091;-63
2023/05/23 02:25:45;;;;;;;;;24.33;22.33;;;;;13.86;100.00;99295.84;6282269;20;2845100;-63
2023/05/23 02:28:14;;;;;;;;;23.67;22.67;;;;;13.50;100.00;99297.81;6316919;20;3587816;-62
2023/05/23 02:30:42;;;;;;;;;22.00;22.00;;;;;13.77;100.00;99303.72;6283091;20;2842069;-61
2023/05/23 02:33:10;;;;;;;;;21.00;20.00;;;;;14.10;100.00;99303.78;6282617;20;3577469;-62
2023/05/23 02:35:39;;;;;;;;;22.50;21.00;;;;;14.15;100.00;99304.25;6279718;20;2842020;-62
2023/05/23 02:38:07;;;;;;;;;24.00;22.00;;;;;14.21;100.00;99296.50;6280189;20;2838847;-62
2023/05/23 02:40:36;;;;;;;;;24.00;22.00;;;;;14.13;100.00;99301.66;6283449;20;2856557;-61
2023/05/23 02:43:05;;;;;;;;;25.00;18.00;;;;;14.39;100.00;99304.06;6314891;20;2850396;-63
2023/05/23 02:45:33;;;;;;;;;23.00;22.00;;;;;14.22;100.00;99297.38;6280325;20;2838945;-63
2023/05/23 02:48:02;;;;;;;;;27.33;24.33;;;;;14.19;100.00;99293.09;6279108;20;2848404;-62
2023/05/23 02:50:30;;;;;;;;;29.00;24.67;;;;;14.22;100.00;99292.81;6316364;20;3596095;-63
2023/05/23 02:52:58;;;;;;;;;21.33;20.00;;;;;14.32;100.00;99292.03;6280433;20;3577521;-62
2023/05/23 02:55:27;;;;;;;;;25.00;23.33;;;;;14.00;100.00;99292.88;6284174;20;3594036;-62
2023/05/23 02:57:57;;;;;;;;;25.67;23.67;;;;;13.95;100.00;99285.13;6282157;20;2858787;-62
2023/05/23 03:00:26;;;;;;;;;26.67;26.67;;;;;13.86;100.00;99285.06;6315508;20;3578495;-61
2023/05/23 03:02:56;;;;;;;;;23.33;23.33;;;;;13.79;100.00;99284.69;6281751;20;3589985;-62
2023/05/23 03:05:25;;;;;;;;;26.00;23.00;;;;;13.54;100.00;99289.38;6281277;20;2856576;-63
2023/05/23 03:07:53;;;;;;;;;22.00;21.33;;;;;13.64;100.00;99289.50;6318297;20;3583627;-62
2023/05/23 03:10:22;;;;;;;;;25.67;24.33;;;;;13.37;100.00;99282.63;6282723;20;3599358;-62
2023/05/23 03:12:50;;;;;;;;;21.00;19.67;;;;;13.43;100.00;99285.81;6315328;20;3557677;-62
2023/05/23 03:15:19;;;;;;;;;25.33;23.67;;;;;13.59;100.00;99289.00;6314869;20;3585715;-62
2023/05/23 03:17:47;;;;;;;;;28.33;23.33;;;;;13.35;100.00;99281.91;6283232;20;3597150;-62
2023/05/23 03:20:16;;;;;;;;;30.00;23.00;;;;;13.60;100.00;99293.41;6278329;20;3613840;-62
2023/05/23 03:22:44;;;;;;;;;22.67;22.67;;;;;13.48;100.00;99286.28;6316364;20;3579989;-62
2023/05/23 03:25:15;;;;;;;;;24.00;23.50;;;;;13.49;100.00;99298.81;6277104;20;2833862;-62
2023/05/23 03:27:43;;;;;;;;;19.33;19.33;;;;;13.88;100.00;99299.28;6284278;20;3581522;-62
2023/05/23 03:30:12;;;;;;;;;23.00;21.50;;;;;14.13;100.00;99298.97;6280629;20;2838955;-62
2023/05/23 03:32:41;;;;;;;;;22.67;22.67;;;;;14.31;100.00;99303.84;6277419;20;2847169;-62
2023/05/23 03:35:10;;;;;;;;;25.33;24.00;;;;;14.41;100.00;99296.69;6313397;20;3585699;-62
2023/05/23 03:37:39;;;;;;;;;24.67;24.00;;;;;14.52;100.00;99301.19;6280063;20;3593010;-62
2023/05/23 03:40:08;;;;;;;;;27.33;27.33;;;;;14.51;100.00;99297.63;6314542;20;3592374;-62
2023/05/23 03:42:38;;;;;;;;;30.67;27.00;;;;;14.56;100.00;99295.44;6280911;20;3586726;-63
2023/05/23 03:45:07;;;;;;;;;27.00;25.67;;;;;14.62;100.00;99292.22;6281569;20;2852442;-62
2023/05/23 03:47:35;;;;;;;;;26.67;26.33;;;;;14.75;100.00;99288.47;6311954;20;3590915;-61
2023/05/23 03:50:04;;;;;;;;;29.33;28.00;;;;;14.79;100.00;99298.88;6279528;20;3594110;-62
2023/05/23 03:52:32;;;;;;;;;29.33;27.67;;;;;14.62;100.00;99286.81;6282139;20;3585767;-62
2023/05/23 03:55:02;;;;;;;;;23.00;23.00;;;;;14.91;100.00;99283.47;6278274;20;2853489;-63
2023/05/23 03:57:30;;;;;;;;;26.00;26.00;;;;;14.89;100.00;99282.72;6311141;20;3587097;-62
2023/05/23 03:59:58;;;;;;;;;21.00;18.50;;;;;14.99;100.00;99282.81;6283611;20;2829470;-63
2023/05/23 04:02:27;;;;;;;;;23.33;20.67;;;;;15.17;100.00;99294.72;6282276;20;2841907;-62
2023/05/23 04:04:56;;;;;;;;;24.00;23.00;;;;;15.13;100.00;99287.84;6315089;20;3596193;-61
2023/05/23 04:07:25;;;;;;;;;24.50;18.50;;;;;15.35;100.00;99289.56;6279716;20;2847150;-63
2023/05/23 04:09:53;;;;;;;;;24.33;21.00;;;;;15.33;100.00;99289.69;6284662;20;3574246;-63
2023/05/23 04:12:21;;;;;;;;;26.33;22.33;;;;;15.24;100.00;99295.88;6275767;20;3574206;-62
2023/05/23 04:14:50;;;;;;;;;34.33;27.00;;;;;15.34;100.00;99306.78;6279551;20;3608694;-62
2023/05/23 04:17:19;;;;;;;;;28.67;23.67;;;;;15.36;100.00;99302.09;6278091;20;2850370;-62
2023/05/23 04:19:48;;;;;;;;;27.67;23.67;;;;;15.54;100.00;99305.88;6314280;20;3591945;-63
2023/05/23 04:22:16;;;;;;;;;27.33;24.00;;;;;15.44;100.00;99307.69;6283118;20;3594077;-63
2023/05/23 04:24:45;;;;;;;;;23.67;23.67;;;;;15.55;100.00;99304.88;6279316;20;3594121;-62
2023/05/23 04:27:14;;;;;;;;;24.33;23.00;;;;;15.59;100.00;99308.19;6275686;20;3589907;-63
2023/05/23 04:29:43;;;;;;;;;24.67;24.67;;;;;15.73;100.00;99306.97;6314697;20;3591910;-63
2023/05/23 04:32:11;;;;;;;;;26.67;25.00;;;;;16.00;100.00;99307.19;6281429;20;3596208;-62
2023/05/23 04:34:40;;;;;;;;;25.00;23.67;;;;;16.20;100.00;99307.28;6279264;20;3581509;-63
2023/05/23 04:37:09;;;;;;;;;28.67;27.33;;;;;16.40;98.55;99310.84;6313929;20;3597124;-63
2023/05/23 04:39:37;;;;;;;;;24.33;23.67;;;;;16.54;97.52;99304.19;6288135;20;3589910;-63
2023/05/23 04:42:06;;;;;;;;;26.00;24.00;;;;;16.71;96.58;99311.56;6289161;20;3583631;-63
2023/05/23 04:44:36;;;;;;;;;22.33;21.67;;;;;16.91;95.22;99303.47;6284490;20;2848240;-62
2023/05/23 04:47:07;;;;;;;;;20.67;20.67;;;;;16.56;96.60;99311.16;6317791;20;3575274;-63
2023/05/23 04:49:36;;;;;;;;;22.67;20.67;;;;;17.19;93.43;99302.56;6284620;20;3581663;-62
2023/05/23 04:52:05;;;;;;;;;23.67;19.33;;;;;16.90;94.52;99308.03;6280424;20;2840133;-63
2023/05/23 04:54:35;;;;;;;;;22.33;22.33;;;;;16.83;94.27;99306.91;6316676;20;3581504;-63
2023/05/23 04:57:03;;;;;;;;;18.50;18.50;;;;;17.10;93.08;99307.00;6279943;20;2827374;-63
2023/05/23 04:59:31;;;;;;;;;24.33;21.33;;;;;17.74;89.80;99301.81;6283319;20;3585636;-62
2023/05/23 05:01:59;;;;;;;;;22.67;20.33;;;;;17.76;90.99;99302.53;6286884;20;3549291;-63
2023/05/23 05:04:28;;;;;;;;;20.67;19.67;;;;;17.64;90.68;99296.44;6319724;20;3558612;-63
2023/05/23 05:06:56;;;;;;;;;20.67;19.00;;;;;17.56;89.72;99299.00;6319253;20;3572146;-63
2023/05/23 05:09:24;;;;;;;;;18.00;18.00;;;;;19.87;80.64;99299.16;6284258;20;2831573;-63
2023/05/23 05:11:52;;;;;;;;;17.00;16.33;;;;;21.98;68.97;99314.97;6285250;20;3557664;-63
2023/05/23 05:14:21;;;;;;;;;18.67;18.67;;;;;19.57;79.30;99310.56;6318488;20;3572217;-64
2023/05/23 05:16:50;;;;;;;;;18.00;18.00;;;;;19.19;82.28;99304.53;6281175;20;2844044;-63
2023/05/23 05:19:18;;;;;;;;;20.50;19.00;;;;;18.90;83.59;99308.38;6316773;20;2836736;-63
2023/05/23 05:21:46;;;;;;;;;17.67;14.33;;;;;18.75;81.40;99296.38;6286837;20;3552341;-63
2023/05/23 05:24:15;;;;;;;;;21.00;18.50;;;;;19.14;80.94;99302.31;6283554;20;2842974;-63
2023/05/23 05:26:43;;;;;;;;;20.00;17.67;;;;;19.42;81.45;99305.72;6286793;20;3565900;-63
2023/05/23 05:29:12;;;;;;;;;19.50;17.00;;;;;19.45;79.02;99305.38;6282523;20;2822168;-64
2023/05/23 05:31:40;;;;;;;;;16.00;16.00;;;;;19.33;78.49;99301.25;6285218;20;2835687;-63
2023/05/23 05:34:08;;;;;;;;;17.67;16.00;;;;;19.84;74.56;99304.94;6285144;20;3569064;-63
2023/05/23 05:36:36;;;;;;;;;18.33;17.00;;;;;19.49;76.06;99301.34;6319046;20;3560833;-64
2023/05/23 05:39:08;;;;;;;;;19.00;19.00;;;;;19.34;76.09;99302.09;6284123;20;2714912;-64
2023/05/23 05:41:36;;;;;;;;;17.50;15.50;;;;;19.32;75.55;99306.84;6313665;20;2827454;-63
2023/05/23 05:44:04;;;;;;;;;17.00;15.00;;;;;19.50;76.49;99308.47;6286348;20;2823202;-63
2023/05/23 05:46:32;;;;;;;;;17.50;17.00;;;;;19.76;76.95;99302.19;6286953;20;2836744;-64
2023/05/23 05:49:00;;;;;;;;;15.00;15.00;;;;;19.74;76.45;99310.50;6284927;20;2808695;-63
2023/05/23 05:51:28;;;;;;;;;16.00;16.00;;;;;19.64;77.77;99306.16;6284779;20;2837881;-64
2023/05/23 05:53:56;;;;;;;;;17.00;16.00;;;;;19.66;78.80;99295.97;6284122;20;2483666;-64
2023/05/23 05:56:25;;;;;;;;;21.50;18.00;;;;;19.49;80.90;99300.50;6284225;20;2841947;-64
2023/05/23 05:58:53;;;;;;;;;17.67;15.00;;;;;19.42;80.77;99297.53;6286368;20;3545056;-63
2023/05/23 06:01:22;;;;;;;;;19.00;17.00;;;;;19.21;83.10;99305.22;6286898;20;2844105;-64
2023/05/23 06:03:50;;;;;;;;;16.00;16.00;;;;;19.40;83.67;99310.44;6286513;20;2828497;-64
2023/05/23 06:06:18;;;;;;;;;20.00;17.00;;;;;19.25;82.62;99312.06;6287312;20;3559681;-64
2023/05/23 06:08:47;;;;;;;;;17.50;17.50;;;;;19.58;83.80;99310.41;6314699;20;2825342;-64
2023/05/23 06:11:15;;;;;;;;;17.50;16.50;;;;;19.74;81.96;99310.50;6286675;20;2827399;-64
2023/05/23 06:13:43;;;;;;;;;17.00;17.00;;;;;19.64;81.82;99303.44;6283535;20;2822219;-64
2023/05/23 06:16:12;;;;;;;;;21.50;20.50;;;;;19.86;80.70;99316.53;6284735;20;2836764;-64
2023/05/23 06:18:40;;;;;;;;;19.33;17.67;;;;;19.91;80.91;99316.06;6287935;20;3583765;-64
2023/05/23 06:21:09;;;;;;;;;26.00;22.67;;;;;20.17;81.06;99316.00;6283303;20;3591327;-64
2023/05/23 06:23:37;;;;;;;;;18.67;18.67;;;;;20.57;79.38;99317.16;6288157;20;3565928;-64
2023/05/23 06:26:06;;;;;;;;;20.33;18.33;;;;;20.82;79.88;99316.13;6279549;20;2842063;-64
2023/05/23 06:28:38;;;;;;;;;19.67;18.67;;;;;20.74;76.30;99313.41;6317543;20;3579541;-64
2023/05/23 06:31:09;;;;;;;;;21.00;19.50;;;;;21.12;76.78;99321.13;6282480;20;2832604;-64
2023/05/23 06:33:38;;;;;;;;;23.00;21.67;;;;;21.12;75.06;99313.78;6289463;20;3594045;-64
2023/05/23 06:36:06;;;;;;;;;15.00;15.00;;;;;21.57;73.67;99326.03;6282539;20;2817006;-64
2023/05/23 06:38:34;;;;;;;;;19.00;17.00;;;;;22.09;70.90;99325.53;6284718;20;2826341;-63
2023/05/23 06:41:05;;;;;;;;;14.00;12.67;;;;;22.22;70.01;99326.84;6285762;20;2488081;-64
2023/05/23 06:43:34;;;;;;;;;16.00;14.00;;;;;22.34;68.56;99322.69;6318093;20;3538847;-64
2023/05/23 06:46:02;;;;;;;;;17.00;16.00;;;;;23.00;68.39;99334.94;6313002;20;2821147;-64
2023/05/23 06:48:30;;;;;;;;;19.67;16.00;;;;;23.30;65.36;99334.19;6286290;20;3557600;-64
2023/05/23 06:50:58;;;;;;;;;14.00;14.00;;;;;23.84;62.25;99331.28;6283442;20;2483662;-64
2023/05/23 06:53:26;;;;;;;;;16.33;16.33;;;;;23.66;61.29;99326.97;6318293;20;3549212;-61
2023/05/23 06:55:55;;;;;;;;;16.00;14.33;;;;;24.00;62.93;99332.97;6316649;20;3536731;-61
2023/05/23 06:58:23;;;;;;;;;14.00;13.67;;;;;23.90;62.70;99316.78;6316160;20;2483742;-62
2023/05/23 07:00:52;;;;;;;;;14.67;12.67;;;;;24.01;62.72;99320.94;6315934;20;2492062;-62
2023/05/23 07:03:20;;;;;;;;;12.33;12.33;;;;;24.94;56.41;99327.59;6310563;20;3526330;-61
2023/05/23 07:05:48;;;;;;;;;14.00;13.67;;;;;24.88;57.40;99329.22;6280875;20;3526313;-61
2023/05/23 07:08:16;;;;;;;;;14.00;12.67;;;;;25.15;55.76;99330.34;6285889;20;2484113;-61
2023/05/23 07:10:44;;;;;;;;;11.67;11.67;;;;;25.19;56.07;99325.28;6317041;20;2799438;-61
2023/05/23 07:13:12;;;;;;;;;16.00;14.00;;;;;25.15;54.35;99333.09;6315098;20;2483625;-61
2023/05/23 07:15:40;;;;;;;;;13.33;11.33;;;;;25.69;53.29;99330.75;6315622;20;3512775;-60
2023/05/23 07:18:09;;;;;;;;;13.00;11.67;;;;;25.52;54.41;99325.56;6282697;20;3521236;-61
2023/05/23 07:20:37;;;;;;;;;12.00;10.67;;;;;25.44;55.61;99316.63;6284953;20;3519070;-61
2023/05/23 07:23:05;;;;;;;;;13.33;12.00;;;;;25.58;56.88;99322.00;6288212;20;3513887;-62
2023/05/23 07:25:33;;;;;;;;;12.33;12.00;;;;;25.27;55.99;99318.81;6315792;20;2483645;-60
2023/05/23 07:35:50;;;;;;;;;9.00;9.00;;;;;25.84;51.64;99318.63;5165079;20;3472158;-64
2023/05/23 07:38:18;;;;;;;;;12.67;12.67;;;;;26.19;50.15;99306.75;6313798;20;3517044;-64
2023/05/23 07:40:46;;;;;;;;;10.67;10.67;;;;;26.22;51.05;99314.59;6316645;20;2483621;-63
2023/05/23 07:43:33;;;;;;;;;14.67;13.00;;;;;26.42;50.95;99310.00;6310693;20;3530506;-64
2023/05/23 07:46:01;;;;;;;;;11.00;10.00;;;;;26.50;49.10;99307.06;6278552;20;2785924;-63
2023/05/23 07:48:30;;;;;;;;;15.00;14.67;;;;;26.66;50.11;99308.63;6310268;20;2483609;-64
2023/05/23 07:50:59;;;;;;;;;11.67;11.67;;;;;26.01;50.98;99310.03;6312303;20;3530602;-63
2023/05/23 07:53:28;;;;;;;;;12.33;12.33;;;;;26.17;51.81;99306.97;6289311;20;2794075;-64
2023/05/23 07:55:56;;;;;;;;;11.67;11.67;;;;;26.34;50.76;99310.19;6311888;20;3509721;-64
2023/05/23 07:58:24;;;;;;;;;14.67;12.33;;;;;26.85;48.56;99315.22;6280364;20;3522220;-64
2023/05/23 08:00:52;;;;;;;;;14.00;12.67;;;;;26.63;51.79;99309.06;6281972;20;3522143;-63
2023/05/23 08:03:20;;;;;;;;;13.33;11.00;;;;;26.73;49.55;99311.41;6279960;20;2491938;-64
2023/05/23 08:05:48;;;;;;;;;11.00;11.00;;;;;26.87;50.62;99312.28;6313315;20;2489898;-64
2023/05/23 08:08:16;;;;;;;;;11.00;9.50;;;;;26.97;50.27;99307.22;6310082;20;2777841;-64
2023/05/23 08:10:45;;;;;;;;;13.00;13.00;;;;;27.27;48.64;99315.09;6312848;20;3525361;-64
2023/05/23 08:13:15;;;;;;;;;11.00;11.00;;;;;27.53;49.57;99317.00;6311349;20;3518057;-64
2023/05/23 08:15:43;;;;;;;;;12.67;12.67;;;;;27.35;49.49;99314.88;6283262;20;3533692;-63
2023/05/23 08:18:12;;;;;;;;;11.67;10.33;;;;;27.60;46.95;99317.00;6308334;20;3518078;-64
2023/05/23 08:20:41;;;;;;;;;13.33;13.33;;;;;27.51;45.71;99319.13;6280072;20;2483616;-63
2023/05/23 08:23:10;;;;;;;;;12.00;12.00;;;;;27.44;46.07;99310.88;6312287;20;3506560;-63
2023/05/23 08:25:39;;;;;;;;;12.67;11.33;;;;;27.43;45.02;99317.41;6310944;20;3525330;-63
2023/05/23 08:28:07;;;;;;;;;11.50;11.50;;;;;26.98;47.32;99310.81;6288554;20;2491982;-63
2023/05/23 08:30:35;;;;;;;;;14.00;12.00;;;;;27.50;47.13;99311.91;6311854;20;2483703;-63
2023/05/23 08:33:03;;;;;;;;;9.33;9.33;;;;;27.63;45.46;99311.91;6311816;20;2765933;-63
2023/05/23 08:35:34;;;;;;;;;12.67;11.67;;;;;27.93;45.17;99322.47;6317687;20;2778612;-64
2023/05/23 08:38:06;;;;;;;;;14.00;12.00;;;;;27.54;45.04;99313.16;6318412;20;3531507;-64
2023/05/23 08:40:35;;;;;;;;;14.50;13.00;;;;;28.46;46.13;99319.53;6308196;20;2801368;-65
2023/05/23 08:43:04;;;;;;;;;12.33;12.33;;;;;27.79;45.00;99308.69;6281928;20;3521240;-65
2023/05/23 08:45:33;;;;;;;;;17.67;13.33;;;;;28.36;46.37;99310.88;6284279;20;3540915;-65
2023/05/23 08:48:07;;;;;;;;;15.33;14.00;;;;;28.62;44.96;99316.31;6314073;20;2483780;-63
2023/05/23 08:50:38;;;;;;;;;18.00;15.00;;;;;28.56;44.50;99316.31;6312105;20;3551371;-63
2023/05/23 08:53:09;;;;;;;;;14.00;14.00;;;;;28.06;45.67;99310.56;6311080;20;2801431;-63
2023/05/23 08:55:37;;;;;;;;;15.50;15.50;;;;;28.07;46.30;99304.84;6279665;20;2815915;-63
2023/05/23 08:58:05;;;;;;;;;17.00;15.67;;;;;28.31;45.57;99308.78;6276913;20;2485743;-63
2023/05/23 09:00:34;;;;;;;;;15.33;14.00;;;;;28.38;44.84;99309.56;6303740;20;2810707;-63
2023/05/23 09:03:03;;;;;;;;;19.00;18.00;;;;;28.10;40.71;99304.38;6310825;20;2821289;-63
2023/05/23 09:05:31;;;;;;;;;18.00;18.00;;;;;28.18;42.06;99306.91;6281067;20;2483627;-63
2023/05/23 09:07:59;;;;;;;;;13.00;13.00;;;;;28.69;41.53;99309.88;6313087;20;3519076;-65
2023/05/23 09:10:28;;;;;;;;;12.33;12.33;;;;;28.77;41.66;99312.38;6305899;20;2483624;-65
2023/05/23 09:12:57;;;;;;;;;15.00;13.33;;;;;28.56;40.23;99311.63;6311713;20;3532564;-65
2023/05/23 09:15:26;;;;;;;;;13.00;13.00;;;;;27.92;42.81;99307.00;6311112;20;3533727;-66
2023/05/23 09:18:02;;;;;;;;;14.67;11.67;;;;;28.73;40.29;99308.38;6308018;20;3527410;-64
2023/05/23 09:20:30;;;;;;;;;13.00;13.00;;;;;28.77;42.08;99306.84;6306576;20;2803570;-64
2023/05/23 09:22:59;;;;;;;;;12.00;12.00;;;;;28.43;42.07;99311.69;6278538;20;3527460;-63
2023/05/23 09:25:30;;;;;;;;;15.33;15.33;;;;;28.66;39.88;99320.31;6314328;20;2483746;-64
2023/05/23 09:28:00;;;;;;;;;13.00;13.00;;;;;28.44;41.29;99307.91;6318466;20;3530762;-64
2023/05/23 09:30:33;;;;;;;;;13.00;13.00;;;;;28.27;42.37;99309.41;6312014;20;2804437;-64
2023/05/23 09:33:01;;;;;;;;;9.67;9.67;;;;;28.70;42.67;99308.81;6280735;20;3483739;-64
2023/05/23 09:35:32;;;;;;;;;12.67;12.67;;;;;28.86;42.72;99311.06;6316785;20;3521166;-64
2023/05/23 09:38:00;;;;;;;;;14.50;14.00;;;;;28.20;41.86;99310.31;6312928;20;2804504;-64
2023/05/23 09:40:30;;;;;;;;;13.00;12.00;;;;;29.06;42.62;99309.00;6284520;20;2789892;-64
2023/05/23 09:43:04;;;;;;;;;12.00;10.67;;;;;28.70;41.81;99304.16;6287756;20;2475438;-64
2023/05/23 09:45:33;;;;;;;;;14.33;14.00;;;;;28.86;42.05;99302.78;6315367;20;3524236;-64
2023/05/23 09:48:01;;;;;;;;;12.33;11.00;;;;;28.92;41.25;99296.34;6283883;20;2483694;-64
2023/05/23 09:50:32;;;;;;;;;10.00;10.00;;;;;28.47;42.15;99290.88;6315577;20;3500416;-65
2023/05/23 09:53:00;;;;;;;;;13.00;13.00;;;;;28.70;43.33;99290.34;6313094;20;3528829;-64
2023/05/23 09:55:29;;;;;;;;;12.50;12.50;;;;;28.99;40.89;99297.16;6284643;20;2793107;-64
2023/05/23 09:57:58;;;;;;;;;14.00;12.00;;;;;29.09;40.44;99294.72;6281141;20;2492012;-64
2023/05/23 10:00:27;;;;;;;;;11.00;11.00;;;;;28.67;40.66;99288.84;6313439;20;3517999;-64
2023/05/23 10:03:12;;;;;;;;;13.00;13.00;;;;;29.70;39.33;99295.06;6316292;20;3535820;-64
2023/05/23 10:05:47;;;;;;;;;12.00;12.00;;;;;28.75;40.46;99281.34;6321150;20;2505516;-64
2023/05/23 10:08:26;;;;;;;;;12.00;12.00;;;;;29.48;40.23;99284.41;6310181;20;3525390;-65
2023/05/23 10:11:16;;;;;;;;;14.00;12.67;;;;;29.16;41.38;99277.28;6299186;20;3527410;-64
2023/05/23 10:13:48;;;;;;;;;16.33;16.33;;;;;29.16;42.49;99280.03;6280436;20;3559770;-64
2023/05/23 10:16:30;;;;;;;;;14.50;12.50;;;;;29.01;41.78;99285.84;6264710;20;2807598;-65
2023/05/23 10:19:10;;;;;;;;;13.00;13.00;;;;;28.81;41.43;99280.47;6269262;20;2800331;-64
2023/05/23 10:21:44;;;;;;;;;13.50;13.50;;;;;29.67;40.82;99277.00;6275589;20;2805500;-64
2023/05/23 10:24:14;;;;;;;;;15.00;13.00;;;;;29.39;39.96;99271.13;6275609;20;2795100;-65
2023/05/23 10:26:44;;;;;;;;;13.00;13.00;;;;;30.13;41.09;99270.09;6266811;20;2810860;-64
2023/05/23 10:29:12;;;;;;;;;13.67;13.67;;;;;30.20;40.18;99267.25;6281130;20;2488475;-64
2023/05/23 10:31:40;;;;;;;;;11.00;11.00;;;;;29.51;41.39;99275.66;6316115;20;3527400;-64
2023/05/23 10:34:37;;;;;;;;;13.33;12.33;;;;;29.26;40.83;99261.84;6312753;20;2483607;-64
2023/05/23 10:37:06;;;;;;;;;11.67;9.00;;;;;29.10;40.49;99263.28;6303494;20;2483731;-64
2023/05/23 10:40:04;;;;;;;;;14.00;13.00;;;;;29.31;40.66;99258.41;6305555;20;3535712;-64
2023/05/23 10:42:51;;;;;;;;;12.00;12.00;;;;;29.73;41.39;99255.91;6310742;20;2487768;-64
2023/05/23 10:45:21;;;;;;;;;11.67;11.67;;;;;29.51;40.01;99260.97;6310284;20;2777500;-64
2023/05/23 10:47:52;;;;;;;;;13.00;12.00;;;;;29.30;38.55;99257.53;6312013;20;2800327;-64
2023/05/23 10:50:36;;;;;;;;;14.00;13.00;;;;;29.37;39.87;99245.59;6280295;20;3535832;-64
2023/05/23 10:53:05;;;;;;;;;13.00;12.33;;;;;29.57;40.10;99242.59;6304594;20;3530528;-64
2023/05/23 10:55:35;;;;;;;;;12.33;12.33;;;;;30.14;40.15;99251.56;6301025;20;2483729;-64
2023/05/23 10:58:09;;;;;;;;;12.67;12.33;;;;;29.59;38.92;99244.06;6313883;20;3500257;-64
2023/05/23 11:00:38;;;;;;;;;10.67;10.67;;;;;30.15;39.30;99240.25;6303601;20;3510680;-64
2023/05/23 11:03:08;;;;;;;;;12.33;12.33;;;;;30.22;39.47;99248.47;6282318;20;2483628;-64
2023/05/23 11:05:42;;;;;;;;;11.00;11.00;;;;;30.05;38.68;99241.91;6309544;20;3510792;-65
2023/05/23 11:08:13;;;;;;;;;13.00;13.00;;;;;29.38;40.47;99233.44;6304503;20;3531645;-64
2023/05/23 11:11:03;;;;;;;;;11.67;11.67;;;;;28.70;41.79;99223.16;6280209;20;3523206;-65
2023/05/23 11:13:56;;;;;;;;;14.00;14.00;;;;;29.08;39.37;99215.63;6277372;20;2483747;-64
2023/05/23 11:16:40;;;;;;;;;12.00;11.00;;;;;29.34;37.49;99227.53;6298997;20;2484194;-65
2023/05/23 11:19:17;;;;;;;;;13.00;11.33;;;;;29.62;38.15;99220.63;6315678;20;2487828;-65
2023/05/23 11:21:52;;;;;;;;;13.00;12.00;;;;;30.12;39.40;99209.41;6304658;20;3526435;-64